sensor_id;sensor_type;location;lat;lon;timestamp;temperature;humidity
68026;SHT31;54819;48.030;14.710;2023-05-07T00:01:27;14.88;80.18
68026;SHT31;54819;48.030;14.710;2023-05-07T00:03:54;14.85;79.98
68026;SHT31;54819;48.030;14.710;2023-05-07T00:06:21;14.87;79.81
68026;SHT31;54819;48.030;14.710;2023-05-07T00:08:48;14.87;80.05
68026;SHT31;54819;48.030;14.710;2023-05-07T00:11:15;14.86;79.71
68026;SHT31;54819;48.030;14.710;2023-05-07T00:13:42;14.86;79.57
68026;SHT31;54819;48.030;14.710;2023-05-07T00:16:08;14.87;79.20
68026;SHT31;54819;48.030;14.710;2023-05-07T00:18:35;14.86;79.22
68026;SHT31;54819;48.030;14.710;2023-05-07T00:21:02;14.83;79.99
68026;SHT31;54819;48.030;14.710;2023-05-07T00:23:28;14.80;80.56
68026;SHT31;54819;48.030;14.710;2023-05-07T00:25:55;14.77;80.72
68026;SHT31;54819;48.030;14.710;2023-05-07T00:28:22;14.77;80.32
68026;SHT31;54819;48.030;14.710;2023-05-07T00:30:49;14.79;80.15
68026;SHT31;54819;48.030;14.710;2023-05-07T00:33:16;14.78;79.83
68026;SHT31;54819;48.030;14.710;2023-05-07T00:35:42;14.77;79.72
68026;SHT31;54819;48.030;14.710;2023-05-07T00:38:09;14.72;79.57
68026;SHT31;54819;48.030;14.710;2023-05-07T00:40:36;14.67;79.56
68026;SHT31;54819;48.030;14.710;2023-05-07T00:43:03;14.64;79.65
68026;SHT31;54819;48.030;14.710;2023-05-07T00:45:30;14.60;79.97
68026;SHT31;54819;48.030;14.710;2023-05-07T00:48:00;14.57;79.70
68026;SHT31;54819;48.030;14.710;2023-05-07T00:50:28;14.53;79.83
68026;SHT31;54819;48.030;14.710;2023-05-07T00:52:56;14.51;79.81
68026;SHT31;54819;48.030;14.710;2023-05-07T00:55:23;14.46;79.54
68026;SHT31;54819;48.030;14.710;2023-05-07T00:57:50;14.39;79.98
68026;SHT31;54819;48.030;14.710;2023-05-07T01:00:18;14.35;80.09
68026;SHT31;54819;48.030;14.710;2023-05-07T01:02:46;14.35;79.92
68026;SHT31;54819;48.030;14.710;2023-05-07T01:05:14;14.35;80.24
68026;SHT31;54819;48.030;14.710;2023-05-07T01:07:44;14.35;80.51
68026;SHT31;54819;48.030;14.710;2023-05-07T01:10:13;14.36;80.00
68026;SHT31;54819;48.030;14.710;2023-05-07T01:12:41;14.38;80.01
68026;SHT31;54819;48.030;14.710;2023-05-07T01:15:09;14.41;80.06
68026;SHT31;54819;48.030;14.710;2023-05-07T01:17:37;14.42;79.77
68026;SHT31;54819;48.030;14.710;2023-05-07T01:20:11;14.44;79.54
68026;SHT31;54819;48.030;14.710;2023-05-07T01:22:39;14.45;79.77
68026;SHT31;54819;48.030;14.710;2023-05-07T01:25:07;14.46;79.77
68026;SHT31;54819;48.030;14.710;2023-05-07T01:27:36;14.45;80.19
68026;SHT31;54819;48.030;14.710;2023-05-07T01:30:04;14.44;80.54
68026;SHT31;54819;48.030;14.710;2023-05-07T01:35:14;14.39;80.15
68026;SHT31;54819;48.030;14.710;2023-05-07T01:37:47;14.36;80.24
68026;SHT31;54819;48.030;14.710;2023-05-07T01:40:15;14.33;80.34
68026;SHT31;54819;48.030;14.710;2023-05-07T01:42:43;14.31;80.50
68026;SHT31;54819;48.030;14.710;2023-05-07T01:45:11;14.30;80.46
68026;SHT31;54819;48.030;14.710;2023-05-07T01:47:38;14.30;80.43
68026;SHT31;54819;48.030;14.710;2023-05-07T01:50:06;14.28;80.80
68026;SHT31;54819;48.030;14.710;2023-05-07T01:52:39;14.23;80.92
68026;SHT31;54819;48.030;14.710;2023-05-07T01:55:07;14.19;80.89
68026;SHT31;54819;48.030;14.710;2023-05-07T01:57:34;14.15;80.83
68026;SHT31;54819;48.030;14.710;2023-05-07T02:00:02;14.10;80.67
68026;SHT31;54819;48.030;14.710;2023-05-07T02:02:40;14.04;80.80
68026;SHT31;54819;48.030;14.710;2023-05-07T02:05:11;14.02;80.85
68026;SHT31;54819;48.030;14.710;2023-05-07T02:07:39;13.99;80.89
68026;SHT31;54819;48.030;14.710;2023-05-07T02:10:06;13.94;81.06
68026;SHT31;54819;48.030;14.710;2023-05-07T02:12:34;13.91;81.23
68026;SHT31;54819;48.030;14.710;2023-05-07T02:15:01;13.87;81.23
68026;SHT31;54819;48.030;14.710;2023-05-07T02:17:29;13.86;81.19
68026;SHT31;54819;48.030;14.710;2023-05-07T02:19:58;13.83;81.18
68026;SHT31;54819;48.030;14.710;2023-05-07T02:22:26;13.80;81.18
68026;SHT31;54819;48.030;14.710;2023-05-07T02:24:52;13.77;81.08
68026;SHT31;54819;48.030;14.710;2023-05-07T02:27:19;13.75;81.03
68026;SHT31;54819;48.030;14.710;2023-05-07T02:29:45;13.71;81.13
68026;SHT31;54819;48.030;14.710;2023-05-07T02:32:12;13.68;81.09
68026;SHT31;54819;48.030;14.710;2023-05-07T02:34:39;13.66;81.19
68026;SHT31;54819;48.030;14.710;2023-05-07T02:37:05;13.62;81.56
68026;SHT31;54819;48.030;14.710;2023-05-07T02:39:32;13.61;81.71
68026;SHT31;54819;48.030;14.710;2023-05-07T02:41:59;13.60;81.54
68026;SHT31;54819;48.030;14.710;2023-05-07T02:44:26;13.58;81.59
68026;SHT31;54819;48.030;14.710;2023-05-07T02:46:52;13.52;81.39
68026;SHT31;54819;48.030;14.710;2023-05-07T02:49:19;13.44;81.32
68026;SHT31;54819;48.030;14.710;2023-05-07T02:51:46;13.31;82.43
68026;SHT31;54819;48.030;14.710;2023-05-07T02:54:16;13.26;82.47
68026;SHT31;54819;48.030;14.710;2023-05-07T02:56:44;13.28;82.64
68026;SHT31;54819;48.030;14.710;2023-05-07T02:59:10;13.24;83.67
68026;SHT31;54819;48.030;14.710;2023-05-07T03:01:39;13.16;84.99
68026;SHT31;54819;48.030;14.710;2023-05-07T03:04:07;13.10;84.53
68026;SHT31;54819;48.030;14.710;2023-05-07T03:06:34;13.08;83.76
68026;SHT31;54819;48.030;14.710;2023-05-07T03:09:00;13.08;83.76
68026;SHT31;54819;48.030;14.710;2023-05-07T03:11:28;13.09;83.62
68026;SHT31;54819;48.030;14.710;2023-05-07T03:13:55;13.06;83.94
68026;SHT31;54819;48.030;14.710;2023-05-07T03:16:21;13.04;83.74
68026;SHT31;54819;48.030;14.710;2023-05-07T03:18:48;13.02;83.62
68026;SHT31;54819;48.030;14.710;2023-05-07T03:21:15;12.99;83.59
68026;SHT31;54819;48.030;14.710;2023-05-07T03:23:42;12.98;83.48
68026;SHT31;54819;48.030;14.710;2023-05-07T03:26:08;12.97;83.47
68026;SHT31;54819;48.030;14.710;2023-05-07T03:28:36;12.95;84.11
68026;SHT31;54819;48.030;14.710;2023-05-07T03:31:05;12.96;83.89
68026;SHT31;54819;48.030;14.710;2023-05-07T03:33:33;12.95;83.76
68026;SHT31;54819;48.030;14.710;2023-05-07T03:36:01;12.92;83.56
68026;SHT31;54819;48.030;14.710;2023-05-07T03:38:28;12.90;83.72
68026;SHT31;54819;48.030;14.710;2023-05-07T03:40:54;12.91;83.60
68026;SHT31;54819;48.030;14.710;2023-05-07T03:43:21;12.93;83.52
68026;SHT31;54819;48.030;14.710;2023-05-07T03:45:53;12.90;83.94
68026;SHT31;54819;48.030;14.710;2023-05-07T03:48:23;12.89;84.15
68026;SHT31;54819;48.030;14.710;2023-05-07T03:50:51;12.92;84.20
68026;SHT31;54819;48.030;14.710;2023-05-07T03:53:18;12.94;84.18
68026;SHT31;54819;48.030;14.710;2023-05-07T03:55:45;12.97;84.07
68026;SHT31;54819;48.030;14.710;2023-05-07T03:58:12;13.01;83.87
68026;SHT31;54819;48.030;14.710;2023-05-07T04:00:38;13.03;83.77
68026;SHT31;54819;48.030;14.710;2023-05-07T04:03:19;13.01;84.38
68026;SHT31;54819;48.030;14.710;2023-05-07T04:05:46;12.97;83.94
68026;SHT31;54819;48.030;14.710;2023-05-07T04:08:13;12.95;83.77
68026;SHT31;54819;48.030;14.710;2023-05-07T04:10:44;12.97;83.77
68026;SHT31;54819;48.030;14.710;2023-05-07T04:13:11;13.00;83.69
68026;SHT31;54819;48.030;14.710;2023-05-07T04:15:40;13.06;83.72
68026;SHT31;54819;48.030;14.710;2023-05-07T04:18:08;13.10;83.67
68026;SHT31;54819;48.030;14.710;2023-05-07T04:20:35;13.15;83.49
68026;SHT31;54819;48.030;14.710;2023-05-07T04:23:04;13.16;83.48
68026;SHT31;54819;48.030;14.710;2023-05-07T04:25:31;13.18;83.49
68026;SHT31;54819;48.030;14.710;2023-05-07T04:28:04;13.17;83.47
68026;SHT31;54819;48.030;14.710;2023-05-07T04:30:31;13.20;83.13
68026;SHT31;54819;48.030;14.710;2023-05-07T04:32:58;13.24;83.21
68026;SHT31;54819;48.030;14.710;2023-05-07T04:35:26;13.29;83.18
68026;SHT31;54819;48.030;14.710;2023-05-07T04:37:53;13.32;83.07
68026;SHT31;54819;48.030;14.710;2023-05-07T04:40:19;13.38;82.99
68026;SHT31;54819;48.030;14.710;2023-05-07T04:42:46;13.44;82.68
68026;SHT31;54819;48.030;14.710;2023-05-07T04:45:13;13.39;82.79
68026;SHT31;54819;48.030;14.710;2023-05-07T04:47:41;13.33;82.92
68026;SHT31;54819;48.030;14.710;2023-05-07T04:50:08;13.28;82.84
68026;SHT31;54819;48.030;14.710;2023-05-07T04:52:36;13.24;82.54
68026;SHT31;54819;48.030;14.710;2023-05-07T04:55:03;13.26;82.81
68026;SHT31;54819;48.030;14.710;2023-05-07T04:57:34;13.32;83.05
68026;SHT31;54819;48.030;14.710;2023-05-07T05:00:01;13.34;82.99
68026;SHT31;54819;48.030;14.710;2023-05-07T05:02:30;13.43;82.99
68026;SHT31;54819;48.030;14.710;2023-05-07T05:04:56;13.52;82.88
68026;SHT31;54819;48.030;14.710;2023-05-07T05:07:23;13.57;82.73
68026;SHT31;54819;48.030;14.710;2023-05-07T05:09:50;13.61;82.75
68026;SHT31;54819;48.030;14.710;2023-05-07T05:12:18;13.70;82.61
68026;SHT31;54819;48.030;14.710;2023-05-07T05:14:44;13.76;82.34
68026;SHT31;54819;48.030;14.710;2023-05-07T05:17:11;13.79;82.33
68026;SHT31;54819;48.030;14.710;2023-05-07T05:19:38;13.82;82.35
68026;SHT31;54819;48.030;14.710;2023-05-07T05:22:04;13.94;82.22
68026;SHT31;54819;48.030;14.710;2023-05-07T05:24:31;14.04;82.04
68026;SHT31;54819;48.030;14.710;2023-05-07T05:26:58;14.09;81.95
68026;SHT31;54819;48.030;14.710;2023-05-07T05:29:28;14.10;81.74
68026;SHT31;54819;48.030;14.710;2023-05-07T05:31:54;14.11;81.69
68026;SHT31;54819;48.030;14.710;2023-05-07T05:34:22;14.18;81.38
68026;SHT31;54819;48.030;14.710;2023-05-07T05:36:49;14.19;81.22
68026;SHT31;54819;48.030;14.710;2023-05-07T05:39:16;14.22;81.51
68026;SHT31;54819;48.030;14.710;2023-05-07T05:41:43;14.27;81.54
68026;SHT31;54819;48.030;14.710;2023-05-07T05:44:11;14.33;81.50
68026;SHT31;54819;48.030;14.710;2023-05-07T05:46:38;14.32;81.20
68026;SHT31;54819;48.030;14.710;2023-05-07T05:49:05;14.32;81.07
68026;SHT31;54819;48.030;14.710;2023-05-07T05:51:31;14.33;80.74
68026;SHT31;54819;48.030;14.710;2023-05-07T05:53:58;14.37;80.64
68026;SHT31;54819;48.030;14.710;2023-05-07T05:56:25;14.49;80.31
68026;SHT31;54819;48.030;14.710;2023-05-07T05:58:52;14.65;79.99
68026;SHT31;54819;48.030;14.710;2023-05-07T06:01:19;14.79;79.49
68026;SHT31;54819;48.030;14.710;2023-05-07T06:03:47;14.97;79.47
68026;SHT31;54819;48.030;14.710;2023-05-07T06:06:14;15.18;78.61
68026;SHT31;54819;48.030;14.710;2023-05-07T06:08:42;15.27;76.74
68026;SHT31;54819;48.030;14.710;2023-05-07T06:11:09;15.32;76.15
68026;SHT31;54819;48.030;14.710;2023-05-07T06:13:37;15.39;75.63
68026;SHT31;54819;48.030;14.710;2023-05-07T06:16:04;15.39;74.55
68026;SHT31;54819;48.030;14.710;2023-05-07T06:18:31;15.41;74.44
68026;SHT31;54819;48.030;14.710;2023-05-07T06:20:58;15.42;73.94
68026;SHT31;54819;48.030;14.710;2023-05-07T06:23:27;15.38;73.61
68026;SHT31;54819;48.030;14.710;2023-05-07T06:25:54;15.43;73.77
68026;SHT31;54819;48.030;14.710;2023-05-07T06:28:24;15.41;73.37
68026;SHT31;54819;48.030;14.710;2023-05-07T06:30:51;15.46;73.35
68026;SHT31;54819;48.030;14.710;2023-05-07T06:33:18;15.53;72.62
68026;SHT31;54819;48.030;14.710;2023-05-07T06:35:46;15.54;72.76
68026;SHT31;54819;48.030;14.710;2023-05-07T06:38:12;15.64;73.10
68026;SHT31;54819;48.030;14.710;2023-05-07T06:40:40;15.78;72.75
68026;SHT31;54819;48.030;14.710;2023-05-07T06:43:06;15.90;72.50
68026;SHT31;54819;48.030;14.710;2023-05-07T06:45:52;15.98;72.00
68026;SHT31;54819;48.030;14.710;2023-05-07T06:48:19;16.10;71.66
68026;SHT31;54819;48.030;14.710;2023-05-07T06:50:58;16.17;71.15
68026;SHT31;54819;48.030;14.710;2023-05-07T06:53:25;16.17;71.06
68026;SHT31;54819;48.030;14.710;2023-05-07T06:55:52;16.26;71.45
68026;SHT31;54819;48.030;14.710;2023-05-07T06:58:19;16.38;71.00
68026;SHT31;54819;48.030;14.710;2023-05-07T07:00:46;16.47;70.66
68026;SHT31;54819;48.030;14.710;2023-05-07T07:03:13;16.49;70.39
68026;SHT31;54819;48.030;14.710;2023-05-07T07:05:41;16.52;70.28
68026;SHT31;54819;48.030;14.710;2023-05-07T07:08:09;16.62;70.70
68026;SHT31;54819;48.030;14.710;2023-05-07T07:10:36;16.67;69.43
68026;SHT31;54819;48.030;14.710;2023-05-07T07:13:03;16.69;69.17
68026;SHT31;54819;48.030;14.710;2023-05-07T07:15:29;16.72;69.28
68026;SHT31;54819;48.030;14.710;2023-05-07T07:17:57;16.72;68.53
68026;SHT31;54819;48.030;14.710;2023-05-07T07:20:24;16.68;68.96
68026;SHT31;54819;48.030;14.710;2023-05-07T07:22:51;16.73;68.47
68026;SHT31;54819;48.030;14.710;2023-05-07T07:25:17;16.80;68.53
68026;SHT31;54819;48.030;14.710;2023-05-07T07:27:44;16.83;68.04
68026;SHT31;54819;48.030;14.710;2023-05-07T07:30:11;16.81;67.74
68026;SHT31;54819;48.030;14.710;2023-05-07T07:32:39;16.80;68.38
68026;SHT31;54819;48.030;14.710;2023-05-07T07:35:06;16.93;68.66
68026;SHT31;54819;48.030;14.710;2023-05-07T07:37:34;17.03;67.66
68026;SHT31;54819;48.030;14.710;2023-05-07T07:40:01;17.08;67.95
68026;SHT31;54819;48.030;14.710;2023-05-07T07:42:27;17.15;67.40
68026;SHT31;54819;48.030;14.710;2023-05-07T07:44:55;17.14;67.39
68026;SHT31;54819;48.030;14.710;2023-05-07T07:47:24;17.16;66.79
68026;SHT31;54819;48.030;14.710;2023-05-07T07:49:51;17.15;66.86
68026;SHT31;54819;48.030;14.710;2023-05-07T07:52:18;17.22;66.63
68026;SHT31;54819;48.030;14.710;2023-05-07T07:54:45;17.20;66.82
68026;SHT31;54819;48.030;14.710;2023-05-07T07:57:12;17.21;65.85
68026;SHT31;54819;48.030;14.710;2023-05-07T07:59:39;17.13;65.63
68026;SHT31;54819;48.030;14.710;2023-05-07T08:02:06;17.17;65.64
68026;SHT31;54819;48.030;14.710;2023-05-07T08:04:33;17.21;65.51
68026;SHT31;54819;48.030;14.710;2023-05-07T08:07:02;17.21;64.69
68026;SHT31;54819;48.030;14.710;2023-05-07T08:09:31;17.16;64.31
68026;SHT31;54819;48.030;14.710;2023-05-07T08:11:58;17.17;64.02
68026;SHT31;54819;48.030;14.710;2023-05-07T08:14:25;17.22;64.11
68026;SHT31;54819;48.030;14.710;2023-05-07T08:16:52;17.31;63.98
68026;SHT31;54819;48.030;14.710;2023-05-07T08:19:19;17.33;63.55
68026;SHT31;54819;48.030;14.710;2023-05-07T08:21:46;17.37;63.35
68026;SHT31;54819;48.030;14.710;2023-05-07T08:24:17;17.43;63.16
68026;SHT31;54819;48.030;14.710;2023-05-07T08:26:45;17.45;62.75
68026;SHT31;54819;48.030;14.710;2023-05-07T08:29:13;17.47;62.79
68026;SHT31;54819;48.030;14.710;2023-05-07T08:31:40;17.44;62.84
68026;SHT31;54819;48.030;14.710;2023-05-07T08:34:07;17.50;62.74
68026;SHT31;54819;48.030;14.710;2023-05-07T08:36:37;17.57;63.04
68026;SHT31;54819;48.030;14.710;2023-05-07T08:39:04;17.68;63.40
68026;SHT31;54819;48.030;14.710;2023-05-07T08:41:31;17.75;63.06
68026;SHT31;54819;48.030;14.710;2023-05-07T08:43:59;17.81;63.64
68026;SHT31;54819;48.030;14.710;2023-05-07T08:46:32;17.93;63.33
68026;SHT31;54819;48.030;14.710;2023-05-07T08:48:59;17.96;62.14
68026;SHT31;54819;48.030;14.710;2023-05-07T08:51:26;17.95;62.04
68026;SHT31;54819;48.030;14.710;2023-05-07T08:53:54;17.96;61.90
68026;SHT31;54819;48.030;14.710;2023-05-07T08:56:24;18.00;61.98
68026;SHT31;54819;48.030;14.710;2023-05-07T08:58:51;18.04;61.05
68026;SHT31;54819;48.030;14.710;2023-05-07T09:01:23;17.98;60.55
68026;SHT31;54819;48.030;14.710;2023-05-07T09:03:51;17.94;60.54
68026;SHT31;54819;48.030;14.710;2023-05-07T09:06:20;17.99;61.05
68026;SHT31;54819;48.030;14.710;2023-05-07T09:08:50;18.00;60.82
68026;SHT31;54819;48.030;14.710;2023-05-07T09:11:24;18.03;61.10
68026;SHT31;54819;48.030;14.710;2023-05-07T09:13:53;18.02;60.87
68026;SHT31;54819;48.030;14.710;2023-05-07T09:16:23;18.09;61.15
68026;SHT31;54819;48.030;14.710;2023-05-07T09:18:52;18.13;61.00
68026;SHT31;54819;48.030;14.710;2023-05-07T09:21:21;18.14;61.30
68026;SHT31;54819;48.030;14.710;2023-05-07T09:23:50;18.20;61.38
68026;SHT31;54819;48.030;14.710;2023-05-07T09:26:23;18.23;60.83
68026;SHT31;54819;48.030;14.710;2023-05-07T09:28:51;18.29;61.56
68026;SHT31;54819;48.030;14.710;2023-05-07T09:31:18;18.48;61.59
68026;SHT31;54819;48.030;14.710;2023-05-07T09:33:50;18.57;60.89
68026;SHT31;54819;48.030;14.710;2023-05-07T09:36:18;18.59;61.21
68026;SHT31;54819;48.030;14.710;2023-05-07T09:38:45;18.72;62.07
68026;SHT31;54819;48.030;14.710;2023-05-07T09:41:13;18.91;61.10
68026;SHT31;54819;48.030;14.710;2023-05-07T09:44:02;19.04;60.63
68026;SHT31;54819;48.030;14.710;2023-05-07T09:46:36;19.04;59.85
68026;SHT31;54819;48.030;14.710;2023-05-07T09:49:21;19.08;59.57
68026;SHT31;54819;48.030;14.710;2023-05-07T09:51:52;19.00;59.91
68026;SHT31;54819;48.030;14.710;2023-05-07T09:54:21;19.01;60.16
68026;SHT31;54819;48.030;14.710;2023-05-07T09:56:49;19.04;59.85
68026;SHT31;54819;48.030;14.710;2023-05-07T09:59:21;19.08;59.88
68026;SHT31;54819;48.030;14.710;2023-05-07T10:01:49;19.13;59.93
68026;SHT31;54819;48.030;14.710;2023-05-07T10:04:19;19.14;59.33
68026;SHT31;54819;48.030;14.710;2023-05-07T10:06:47;19.08;59.20
68026;SHT31;54819;48.030;14.710;2023-05-07T10:09:15;19.12;59.26
68026;SHT31;54819;48.030;14.710;2023-05-07T10:11:42;19.15;57.81
68026;SHT31;54819;48.030;14.710;2023-05-07T10:14:10;19.15;57.56
68026;SHT31;54819;48.030;14.710;2023-05-07T10:16:37;19.23;58.14
68026;SHT31;54819;48.030;14.710;2023-05-07T10:19:08;19.33;58.66
68026;SHT31;54819;48.030;14.710;2023-05-07T10:21:42;19.42;58.52
68026;SHT31;54819;48.030;14.710;2023-05-07T10:24:21;19.54;59.12
68026;SHT31;54819;48.030;14.710;2023-05-07T10:26:54;19.60;58.38
68026;SHT31;54819;48.030;14.710;2023-05-07T10:31:55;19.66;57.47
68026;SHT31;54819;48.030;14.710;2023-05-07T10:34:57;19.63;58.29
68026;SHT31;54819;48.030;14.710;2023-05-07T10:37:29;19.72;58.70
68026;SHT31;54819;48.030;14.710;2023-05-07T10:39:57;19.73;57.40
68026;SHT31;54819;48.030;14.710;2023-05-07T10:42:24;19.68;57.50
68026;SHT31;54819;48.030;14.710;2023-05-07T10:44:52;19.79;58.02
68026;SHT31;54819;48.030;14.710;2023-05-07T10:47:25;19.93;58.04
68026;SHT31;54819;48.030;14.710;2023-05-07T10:52:26;20.10;57.72
68026;SHT31;54819;48.030;14.710;2023-05-07T10:55:18;20.03;56.44
68026;SHT31;54819;48.030;14.710;2023-05-07T10:58:22;19.98;57.23
68026;SHT31;54819;48.030;14.710;2023-05-07T11:01:14;20.07;57.09
68026;SHT31;54819;48.030;14.710;2023-05-07T11:09:58;20.05;56.86
68026;SHT31;54819;48.030;14.710;2023-05-07T11:12:53;20.03;56.42
68026;SHT31;54819;48.030;14.710;2023-05-07T11:15:37;20.03;56.47
68026;SHT31;54819;48.030;14.710;2023-05-07T11:18:50;20.03;56.73
68026;SHT31;54819;48.030;14.710;2023-05-07T11:21:35;20.10;56.65
68026;SHT31;54819;48.030;14.710;2023-05-07T11:24:23;20.15;56.96
68026;SHT31;54819;48.030;14.710;2023-05-07T11:26:59;20.20;56.92
68026;SHT31;54819;48.030;14.710;2023-05-07T11:29:28;20.35;57.53
68026;SHT31;54819;48.030;14.710;2023-05-07T11:31:59;20.43;56.86
68026;SHT31;54819;48.030;14.710;2023-05-07T11:34:31;20.47;56.71
68026;SHT31;54819;48.030;14.710;2023-05-07T11:36:59;20.48;56.60
68026;SHT31;54819;48.030;14.710;2023-05-07T11:39:41;20.53;57.19
68026;SHT31;54819;48.030;14.710;2023-05-07T11:42:21;20.65;57.64
68026;SHT31;54819;48.030;14.710;2023-05-07T11:44:56;20.78;57.11
68026;SHT31;54819;48.030;14.710;2023-05-07T11:47:23;20.85;56.12
68026;SHT31;54819;48.030;14.710;2023-05-07T11:49:52;20.87;56.85
68026;SHT31;54819;48.030;14.710;2023-05-07T11:52:22;20.91;56.59
68026;SHT31;54819;48.030;14.710;2023-05-07T11:54:54;20.94;56.86
68026;SHT31;54819;48.030;14.710;2023-05-07T11:57:23;20.93;56.54
68026;SHT31;54819;48.030;14.710;2023-05-07T11:59:57;20.84;56.35
68026;SHT31;54819;48.030;14.710;2023-05-07T12:02:25;20.76;56.19
68026;SHT31;54819;48.030;14.710;2023-05-07T12:04:52;20.78;57.07
68026;SHT31;54819;48.030;14.710;2023-05-07T12:07:20;20.80;56.80
68026;SHT31;54819;48.030;14.710;2023-05-07T12:09:47;20.78;57.01
68026;SHT31;54819;48.030;14.710;2023-05-07T12:12:14;20.87;57.44
68026;SHT31;54819;48.030;14.710;2023-05-07T12:14:43;20.92;56.65
68026;SHT31;54819;48.030;14.710;2023-05-07T12:17:12;20.97;56.69
68026;SHT31;54819;48.030;14.710;2023-05-07T12:19:42;21.02;56.79
68026;SHT31;54819;48.030;14.710;2023-05-07T12:22:11;21.11;56.28
68026;SHT31;54819;48.030;14.710;2023-05-07T12:27:36;21.05;55.58
68026;SHT31;54819;48.030;14.710;2023-05-07T12:30:05;21.03;55.87
68026;SHT31;54819;48.030;14.710;2023-05-07T12:32:35;21.08;55.62
68026;SHT31;54819;48.030;14.710;2023-05-07T12:35:03;21.09;55.46
68026;SHT31;54819;48.030;14.710;2023-05-07T12:37:32;21.09;55.97
68026;SHT31;54819;48.030;14.710;2023-05-07T12:42:36;21.23;55.78
68026;SHT31;54819;48.030;14.710;2023-05-07T12:45:07;21.27;56.00
68026;SHT31;54819;48.030;14.710;2023-05-07T12:47:39;21.22;55.52
68026;SHT31;54819;48.030;14.710;2023-05-07T12:50:06;21.19;55.58
68026;SHT31;54819;48.030;14.710;2023-05-07T12:52:33;21.15;55.15
68026;SHT31;54819;48.030;14.710;2023-05-07T12:55:07;21.19;55.87
68026;SHT31;54819;48.030;14.710;2023-05-07T12:57:38;21.27;55.11
68026;SHT31;54819;48.030;14.710;2023-05-07T13:00:12;21.25;55.70
68026;SHT31;54819;48.030;14.710;2023-05-07T13:02:41;21.27;56.06
68026;SHT31;54819;48.030;14.710;2023-05-07T13:05:11;21.20;55.29
68026;SHT31;54819;48.030;14.710;2023-05-07T13:07:39;21.17;55.16
68026;SHT31;54819;48.030;14.710;2023-05-07T13:10:07;21.12;55.55
68026;SHT31;54819;48.030;14.710;2023-05-07T13:12:35;21.06;55.95
68026;SHT31;54819;48.030;14.710;2023-05-07T13:15:02;21.10;55.64
68026;SHT31;54819;48.030;14.710;2023-05-07T13:17:29;21.17;56.22
68026;SHT31;54819;48.030;14.710;2023-05-07T13:19:57;21.23;54.92
68026;SHT31;54819;48.030;14.710;2023-05-07T13:22:24;21.18;54.94
68026;SHT31;54819;48.030;14.710;2023-05-07T13:24:51;21.17;55.19
68026;SHT31;54819;48.030;14.710;2023-05-07T13:27:17;21.12;54.77
68026;SHT31;54819;48.030;14.710;2023-05-07T13:29:45;21.10;55.17
68026;SHT31;54819;48.030;14.710;2023-05-07T13:32:12;21.04;54.74
68026;SHT31;54819;48.030;14.710;2023-05-07T13:34:39;20.93;55.69
68026;SHT31;54819;48.030;14.710;2023-05-07T13:37:06;20.94;55.98
68026;SHT31;54819;48.030;14.710;2023-05-07T13:39:36;20.92;56.33
68026;SHT31;54819;48.030;14.710;2023-05-07T13:42:03;20.92;55.65
68026;SHT31;54819;48.030;14.710;2023-05-07T13:44:30;20.94;56.20
68026;SHT31;54819;48.030;14.710;2023-05-07T13:46:57;20.97;56.40
68026;SHT31;54819;48.030;14.710;2023-05-07T13:49:23;21.01;55.59
68026;SHT31;54819;48.030;14.710;2023-05-07T13:51:50;20.95;55.56
68026;SHT31;54819;48.030;14.710;2023-05-07T13:54:17;20.82;55.91
68026;SHT31;54819;48.030;14.710;2023-05-07T13:56:43;20.76;56.66
68026;SHT31;54819;48.030;14.710;2023-05-07T13:59:10;20.79;56.63
68026;SHT31;54819;48.030;14.710;2023-05-07T14:01:37;20.78;55.95
68026;SHT31;54819;48.030;14.710;2023-05-07T14:04:04;20.75;56.25
68026;SHT31;54819;48.030;14.710;2023-05-07T14:06:30;20.67;56.02
68026;SHT31;54819;48.030;14.710;2023-05-07T14:08:57;20.55;56.69
68026;SHT31;54819;48.030;14.710;2023-05-07T14:11:24;20.53;56.94
68026;SHT31;54819;48.030;14.710;2023-05-07T14:13:51;20.48;56.87
68026;SHT31;54819;48.030;14.710;2023-05-07T14:16:17;20.44;56.55
68026;SHT31;54819;48.030;14.710;2023-05-07T14:18:44;20.48;56.78
68026;SHT31;54819;48.030;14.710;2023-05-07T14:21:11;20.48;57.12
68026;SHT31;54819;48.030;14.710;2023-05-07T14:23:37;20.46;56.93
68026;SHT31;54819;48.030;14.710;2023-05-07T14:26:04;20.40;56.48
68026;SHT31;54819;48.030;14.710;2023-05-07T14:28:31;20.38;57.33
68026;SHT31;54819;48.030;14.710;2023-05-07T14:30:58;20.46;57.49
68026;SHT31;54819;48.030;14.710;2023-05-07T14:33:26;20.48;57.32
68026;SHT31;54819;48.030;14.710;2023-05-07T14:35:52;20.49;56.65
68026;SHT31;54819;48.030;14.710;2023-05-07T14:38:19;20.43;56.72
68026;SHT31;54819;48.030;14.710;2023-05-07T14:40:46;20.39;56.53
68026;SHT31;54819;48.030;14.710;2023-05-07T14:43:13;20.33;56.43
68026;SHT31;54819;48.030;14.710;2023-05-07T14:45:40;20.28;56.46
68026;SHT31;54819;48.030;14.710;2023-05-07T14:48:06;20.24;57.07
68026;SHT31;54819;48.030;14.710;2023-05-07T14:50:35;20.25;56.76
68026;SHT31;54819;48.030;14.710;2023-05-07T14:53:02;20.22;56.58
68026;SHT31;54819;48.030;14.710;2023-05-07T14:55:28;20.16;57.12
68026;SHT31;54819;48.030;14.710;2023-05-07T14:57:55;20.15;56.91
68026;SHT31;54819;48.030;14.710;2023-05-07T15:00:22;20.15;57.24
68026;SHT31;54819;48.030;14.710;2023-05-07T15:02:49;20.09;57.23
68026;SHT31;54819;48.030;14.710;2023-05-07T15:05:15;20.07;57.72
68026;SHT31;54819;48.030;14.710;2023-05-07T15:07:43;20.12;57.31
68026;SHT31;54819;48.030;14.710;2023-05-07T15:10:11;20.08;57.03
68026;SHT31;54819;48.030;14.710;2023-05-07T15:12:38;20.03;57.57
68026;SHT31;54819;48.030;14.710;2023-05-07T15:15:05;20.11;57.89
68026;SHT31;54819;48.030;14.710;2023-05-07T15:17:32;20.14;57.20
68026;SHT31;54819;48.030;14.710;2023-05-07T15:19:59;20.03;57.29
68026;SHT31;54819;48.030;14.710;2023-05-07T15:22:27;19.97;57.45
68026;SHT31;54819;48.030;14.710;2023-05-07T15:24:53;19.96;57.58
68026;SHT31;54819;48.030;14.710;2023-05-07T15:27:21;19.90;57.43
68026;SHT31;54819;48.030;14.710;2023-05-07T15:29:47;19.86;58.09
68026;SHT31;54819;48.030;14.710;2023-05-07T15:32:14;19.91;58.22
68026;SHT31;54819;48.030;14.710;2023-05-07T15:34:41;19.87;57.58
68026;SHT31;54819;48.030;14.710;2023-05-07T15:37:08;19.79;57.59
68026;SHT31;54819;48.030;14.710;2023-05-07T15:39:34;19.78;57.91
68026;SHT31;54819;48.030;14.710;2023-05-07T15:42:01;19.73;57.93
68026;SHT31;54819;48.030;14.710;2023-05-07T15:44:29;19.66;57.66